Time;durP1;ratioP1;P1;durP2;ratioP2;P2;SDS_P1;SDS_P2;PMS_P1;PMS_P2;Temp;Humidity;BMP_temperature;BMP_pressure;BME280_temperature;BME280_humidity;BME280_pressure;Samples;Min_cycle;Max_cycle;Signal;HPM_P1;HPM_P2
2022/10/10 00:01:24;;;;;;;7.40;6.37;;;;;;;7.98;100.00;96517.84;5035126;28;101963;-62
2022/10/10 00:03:51;;;;;;;6.87;6.17;;;;;;;8.00;100.00;96513.13;5030640;28;105519;-62
2022/10/10 00:06:19;;;;;;;6.47;5.87;;;;;;;7.96;100.00;96522.59;5031471;28;101956;-62
2022/10/10 00:08:46;;;;;;;7.17;5.60;;;;;;;7.99;100.00;96516.81;5032872;28;102722;-62
2022/10/10 00:11:16;;;;;;;7.03;5.83;;;;;;;7.97;100.00;96514.38;5032485;28;102596;-62
2022/10/10 00:13:44;;;;;;;7.63;6.27;;;;;;;7.96;100.00;96512.00;5031304;28;102228;-62
2022/10/10 00:16:13;;;;;;;8.90;6.20;;;;;;;7.94;100.00;96511.41;5031528;28;105255;-62
2022/10/10 00:18:40;;;;;;;7.67;5.60;;;;;;;7.93;100.00;96513.25;5032171;28;102539;-62
2022/10/10 00:21:08;;;;;;;7.47;5.50;;;;;;;7.94;100.00;96506.91;5031216;28;101955;-62
2022/10/10 00:23:36;;;;;;;5.87;5.27;;;;;;;7.91;100.00;96511.88;5033587;28;104907;-62
2022/10/10 00:26:04;;;;;;;6.83;5.53;;;;;;;7.85;100.00;96515.44;5031272;28;102072;-62
2022/10/10 00:28:31;;;;;;;7.63;5.70;;;;;;;7.90;100.00;96510.28;5031011;28;104856;-62
2022/10/10 00:30:59;;;;;;;7.30;5.90;;;;;;;7.87;100.00;96514.19;5030373;28;103783;-62
2022/10/10 00:33:28;;;;;;;9.17;5.67;;;;;;;7.85;100.00;96510.94;5031217;28;101901;-62
2022/10/10 00:35:55;;;;;;;6.10;5.47;;;;;;;7.81;100.00;96511.63;5030819;28;105016;-62
2022/10/10 00:38:23;;;;;;;6.67;5.13;;;;;;;7.78;100.00;96512.09;5013754;28;104983;-62
2022/10/10 00:40:53;;;;;;;5.20;4.80;;;;;;;7.68;100.00;96512.66;5031152;28;101807;-62
2022/10/10 00:43:20;;;;;;;5.23;4.83;;;;;;;7.71;100.00;96516.69;5030769;28;105360;-62
2022/10/10 00:45:49;;;;;;;5.90;4.90;;;;;;;7.57;100.00;96510.00;5033499;28;106970;-62
2022/10/10 00:48:19;;;;;;;5.80;5.20;;;;;;;7.58;100.00;96506.34;5031809;27;102502;-62
2022/10/10 00:50:51;;;;;;;6.23;4.70;;;;;;;7.49;100.00;96503.22;5030062;28;103976;-62
2022/10/10 00:53:26;;;;;;;4.70;4.30;;;;;;;7.50;100.00;96514.59;5030346;28;101884;-62
2022/10/10 00:55:55;;;;;;;6.23;4.60;;;;;;;7.50;100.00;96512.75;5030634;28;106561;-62
2022/10/10 00:58:24;;;;;;;4.87;4.43;;;;;;;7.40;100.00;96503.75;5029754;28;105445;-62
2022/10/10 01:00:52;;;;;;;5.03;4.53;;;;;;;7.38;100.00;96511.13;5030469;28;101869;-62
2022/10/10 01:03:21;;;;;;;4.90;4.47;;;;;;;7.42;100.00;96504.34;5030592;28;105391;-62
2022/10/10 01:05:55;;;;;;;6.13;4.73;;;;;;;7.35;100.00;96506.28;5029851;28;105365;-62
2022/10/10 01:08:23;;;;;;;4.27;3.87;;;;;;;7.27;100.00;96507.44;5034003;28;101761;-62
2022/10/10 01:11:16;;;;;;;5.30;4.80;;;;;;;7.35;100.00;96503.63;5029524;28;105538;-62
2022/10/10 01:13:51;;;;;;;5.03;4.20;;;;;;;7.35;100.00;96506.28;5030422;28;102050;-62
2022/10/10 01:16:27;;;;;;;6.23;4.50;;;;;;;7.35;100.00;96498.34;5030456;28;104778;-62
2022/10/10 01:19:03;;;;;;;4.90;4.43;;;;;;;7.38;100.00;96505.84;5029777;28;105168;-62
2022/10/10 01:21:43;;;;;;;5.40;4.87;;;;;;;7.31;100.00;96505.13;5031753;28;102125;-62
2022/10/10 01:24:48;;;;;;;4.83;4.43;;;;;;;7.25;100.00;96498.13;5031747;28;102898;-62
2022/10/10 01:27:25;;;;;;;5.23;4.07;;;;;;;7.23;100.00;96506.28;5017091;28;103993;-62
2022/10/10 01:29:57;;;;;;;4.73;4.33;;;;;;;7.16;100.00;96502.91;5031770;27;101629;-62
2022/10/10 01:32:33;;;;;;;4.80;4.10;;;;;;;7.09;100.00;96504.84;5033054;28;105211;-62
2022/10/10 01:35:08;;;;;;;4.30;3.90;;;;;;;7.13;100.00;96507.81;5031442;28;101700;-62
2022/10/10 01:37:45;;;;;;;4.70;4.23;;;;;;;7.17;100.00;96514.28;5030197;28;105319;-62
2022/10/10 01:40:23;;;;;;;4.37;3.97;;;;;;;7.14;100.00;96512.91;5029492;28;105410;-62
2022/10/10 01:42:53;;;;;;;4.67;4.20;;;;;;;7.12;100.00;96514.97;5031366;27;101641;-62
2022/10/10 01:45:23;;;;;;;4.17;3.83;;;;;;;7.04;100.00;96510.00;5031320;28;102858;-62
2022/10/10 01:47:54;;;;;;;3.70;3.40;;;;;;;6.99;100.00;96509.84;5030535;28;103150;-62
2022/10/10 01:50:23;;;;;;;4.80;4.30;;;;;;;6.95;100.00;96511.34;5029783;28;101760;-62
2022/10/10 01:53:00;;;;;;;4.27;3.87;;;;;;;6.96;100.00;96514.78;5031113;27;102332;-62
2022/10/10 01:55:43;;;;;;;6.13;5.00;;;;;;;7.10;100.00;96518.88;5033554;27;102620;-62
2022/10/10 01:58:23;;;;;;;6.13;4.90;;;;;;;7.09;100.00;96519.91;5031788;27;101680;-62
2022/10/10 02:01:00;;;;;;;4.60;4.20;;;;;;;7.05;100.00;96524.03;5029738;27;103177;-62
2022/10/10 02:03:31;;;;;;;5.00;4.30;;;;;;;7.06;100.00;96523.00;5031026;28;101820;-62
2022/10/10 02:06:04;;;;;;;4.60;4.20;;;;;;;7.03;100.00;96518.16;5029607;28;103617;-62
2022/10/10 02:08:35;;;;;;;4.20;3.80;;;;;;;6.89;100.00;96519.38;5030395;27;102988;-62
2022/10/10 02:11:06;;;;;;;3.97;3.67;;;;;;;6.88;100.00;96517.75;5030670;27;101711;-62
2022/10/10 02:13:39;;;;;;;4.20;3.80;;;;;;;6.90;100.00;96513.88;5029469;28;105460;-62
2022/10/10 02:16:14;;;;;;;4.13;3.73;;;;;;;6.83;100.00;96513.13;5033843;28;102846;-62
2022/10/10 02:18:44;;;;;;;4.37;3.97;;;;;;;6.86;100.00;96507.41;5030976;28;102369;-62
2022/10/10 02:21:13;;;;;;;5.23;4.00;;;;;;;6.83;100.00;96507.84;5029884;27;104072;-62
2022/10/10 02:23:42;;;;;;;4.20;3.80;;;;;;;6.89;100.00;96506.16;5029075;28;101817;-62
2022/10/10 02:26:12;;;;;;;4.40;4.10;;;;;;;6.85;100.00;96503.16;5029306;28;102986;-62
2022/10/10 02:28:45;;;;;;;4.60;4.20;;;;;;;6.88;100.00;96507.97;5028664;28;105216;-62
2022/10/10 02:31:19;;;;;;;4.80;4.40;;;;;;;6.89;100.00;96514.91;5029020;28;101790;-62
2022/10/10 02:33:49;;;;;;;4.63;4.23;;;;;;;6.89;100.00;96508.78;5029288;28;105181;-62
2022/10/10 02:36:20;;;;;;;5.10;4.60;;;;;;;6.82;100.00;96513.38;5028574;28;105281;-62
2022/10/10 02:38:48;;;;;;;5.77;5.17;;;;;;;6.86;100.00;96509.22;5032517;28;102138;-62
2022/10/10 02:41:18;;;;;;;5.23;4.73;;;;;;;6.81;100.00;96509.13;5028482;28;105623;-62
2022/10/10 02:43:46;;;;;;;5.50;4.37;;;;;;;6.79;100.00;96503.22;5028828;28;101854;-62
2022/10/10 02:46:15;;;;;;;4.90;4.40;;;;;;;6.90;100.00;96507.75;5028919;28;105376;-62
2022/10/10 02:48:43;;;;;;;5.40;4.40;;;;;;;6.86;100.00;96509.22;5028321;28;106426;-62
2022/10/10 02:51:12;;;;;;;4.73;3.70;;;;;;;6.92;100.00;96505.72;5028798;28;101944;-62
2022/10/10 02:53:39;;;;;;;4.87;4.43;;;;;;;6.83;100.00;96510.47;5012063;28;104934;-62
2022/10/10 02:56:07;;;;;;;4.70;4.30;;;;;;;6.91;100.00;96504.06;5028353;28;105021;-62
2022/10/10 02:58:34;;;;;;;5.73;5.03;;;;;;;6.86;100.00;96499.47;5030035;27;101667;-62
2022/10/10 03:01:01;;;;;;;6.20;5.07;;;;;;;6.80;100.00;96502.19;5031630;28;105643;-62
2022/10/10 03:03:31;;;;;;;5.53;4.83;;;;;;;6.85;100.00;96504.97;5028750;28;101893;-62
2022/10/10 03:05:59;;;;;;;6.20;4.93;;;;;;;6.93;100.00;96502.03;5028756;28;105217;-62
2022/10/10 03:08:26;;;;;;;5.90;5.40;;;;;;;6.95;100.00;96508.72;5027765;28;105604;-62
2022/10/10 03:10:58;;;;;;;5.60;5.10;;;;;;;6.97;100.00;96511.94;5028717;28;101922;-62
2022/10/10 03:13:25;;;;;;;7.17;5.10;;;;;;;6.98;100.00;96505.59;5032255;28;104886;-62
2022/10/10 03:15:52;;;;;;;6.20;5.60;;;;;;;6.97;100.00;96497.88;5031731;28;102781;-62
2022/10/10 03:18:20;;;;;;;6.30;5.47;;;;;;;6.97;100.00;96508.47;5032495;28;101781;-62
2022/10/10 03:20:53;;;;;;;5.20;4.70;;;;;;;7.00;100.00;96502.75;5033389;28;102338;-62
2022/10/10 03:23:21;;;;;;;5.27;4.77;;;;;;;7.00;100.00;96503.56;5035843;27;104983;-62
2022/10/10 03:25:48;;;;;;;6.40;4.77;;;;;;;7.01;100.00;96510.47;5032195;28;104955;-62
2022/10/10 03:28:15;;;;;;;4.70;4.30;;;;;;;7.01;100.00;96499.88;5031529;28;105218;-62
2022/10/10 03:30:43;;;;;;;6.67;4.80;;;;;;;7.05;100.00;96500.22;5031583;28;101955;-62
2022/10/10 03:33:10;;;;;;;4.90;4.50;;;;;;;7.05;100.00;96505.53;5032046;28;105932;-62
2022/10/10 03:35:38;;;;;;;5.70;4.67;;;;;;;7.05;100.00;96505.53;5032766;28;103216;-62
2022/10/10 03:38:06;;;;;;;4.80;4.40;;;;;;;7.07;100.00;96506.91;5031843;28;102371;-62
2022/10/10 03:40:34;;;;;;;5.63;4.30;;;;;;;7.07;100.00;96500.81;5031650;28;105739;-62
2022/10/10 03:43:01;;;;;;;5.00;4.50;;;;;;;7.05;100.00;96502.88;5031194;28;103716;-62
2022/10/10 03:45:29;;;;;;;5.57;5.00;;;;;;;7.05;100.00;96505.53;5036698;28;101776;-62
2022/10/10 03:47:56;;;;;;;5.23;4.03;;;;;;;6.97;100.00;96511.09;5031199;28;105070;-62
2022/10/10 03:50:24;;;;;;;5.90;4.90;;;;;;;6.98;100.00;96510.09;5031448;28;101831;-62
2022/10/10 03:52:50;;;;;;;4.50;4.10;;;;;;;6.98;100.00;96510.09;5030907;28;105545;-62
2022/10/10 03:55:19;;;;;;;5.40;4.90;;;;;;;6.92;100.00;96508.34;5030997;28;105742;-62
2022/10/10 03:57:47;;;;;;;11.07;7.93;;;;;;;6.89;100.00;96509.63;5031418;28;101941;-62
2022/10/10 04:00:14;;;;;;;14.83;9.27;;;;;;;6.87;100.00;96505.59;5031314;28;105241;-62
2022/10/10 04:02:41;;;;;;;15.73;10.80;;;;;;;6.86;100.00;96503.94;5031157;28;104963;-62
2022/10/10 04:05:09;;;;;;;12.90;8.83;;;;;;;6.84;100.00;96503.38;5033880;28;101966;-62
2022/10/10 04:07:36;;;;;;;16.27;10.33;;;;;;;6.84;100.00;96500.72;5030523;28;103784;-62
2022/10/10 04:10:05;;;;;;;12.67;9.33;;;;;;;6.83;100.00;96504.41;5032119;28;101943;-62
2022/10/10 04:12:33;;;;;;;17.50;12.90;;;;;;;6.80;100.00;96515.41;5032708;28;102637;-62
2022/10/10 04:15:01;;;;;;;16.90;9.97;;;;;;;6.74;100.00;96514.47;5029722;28;104470;-62
2022/10/10 04:17:28;;;;;;;7.10;6.07;;;;;;;6.61;100.00;96516.50;5030226;28;101849;-62
2022/10/10 04:19:57;;;;;;;6.30;5.60;;;;;;;6.60;100.00;96515.66;5031032;28;105058;-62
2022/10/10 04:22:24;;;;;;;5.50;4.97;;;;;;;6.58;100.00;96509.00;5030209;27;105717;-62
2022/10/10 04:24:51;;;;;;;5.50;5.00;;;;;;;6.63;100.00;96515.25;5030573;28;101882;-62
2022/10/10 04:27:19;;;;;;;5.90;5.00;;;;;;;6.65;100.00;96515.03;5033831;28;103626;-62
2022/10/10 04:29:47;;;;;;;6.70;5.47;;;;;;;6.59;100.00;96523.81;5031205;28;101841;-62
2022/10/10 04:32:14;;;;;;;6.20;5.07;;;;;;;6.61;100.00;96521.78;5032266;27;102301;-62
2022/10/10 04:34:41;;;;;;;5.50;4.80;;;;;;;6.54;100.00;96518.41;5030400;28;105120;-62
2022/10/10 04:37:08;;;;;;;5.70;5.20;;;;;;;6.47;100.00;96517.66;5030747;28;101906;-62
2022/10/10 04:39:35;;;;;;;5.43;5.03;;;;;;;6.49;100.00;96523.56;5030863;28;104800;-62
2022/10/10 04:42:02;;;;;;;5.33;4.83;;;;;;;6.50;100.00;96525.94;5031644;28;102921;-62
2022/10/10 04:44:30;;;;;;;6.37;5.53;;;;;;;6.51;100.00;96529.41;5030744;28;101962;-62
2022/10/10 04:46:58;;;;;;;6.03;5.43;;;;;;;6.56;100.00;96525.09;5030870;28;105196;-62
2022/10/10 04:49:25;;;;;;;5.70;5.03;;;;;;;6.64;100.00;96524.78;5033547;28;103863;-63
2022/10/10 04:51:52;;;;;;;7.00;5.40;;;;;;;6.63;100.00;96525.00;5029963;28;105478;-63
2022/10/10 04:54:19;;;;;;;8.83;6.97;;;;;;;6.55;100.00;96533.22;5030079;28;105461;-62
2022/10/10 04:56:47;;;;;;;8.13;7.27;;;;;;;6.55;100.00;96520.81;5030494;28;101880;-62
2022/10/10 04:59:15;;;;;;;7.07;6.37;;;;;;;6.62;100.00;96526.03;5030598;28;105063;-62
2022/10/10 05:01:42;;;;;;;8.30;7.37;;;;;;;6.61;100.00;96530.50;5029879;28;105343;-62
2022/10/10 05:04:11;;;;;;;10.90;8.33;;;;;;;6.57;100.00;96525.88;5029986;28;101950;-62
2022/10/10 05:06:40;;;;;;;8.43;7.33;;;;;;;6.56;100.00;96527.72;5030548;28;105471;-62
2022/10/10 05:09:07;;;;;;;8.33;7.23;;;;;;;6.50;100.00;96525.94;5013174;28;105723;-62
2022/10/10 05:11:34;;;;;;;8.03;7.20;;;;;;;6.37;100.00;96522.66;5033754;28;101915;-62
2022/10/10 05:14:01;;;;;;;8.93;6.90;;;;;;;6.36;100.00;96527.16;5031230;28;102710;-62
2022/10/10 05:16:30;;;;;;;8.30;7.50;;;;;;;6.38;100.00;96533.00;5030428;28;101975;-62
2022/10/10 05:18:57;;;;;;;8.60;7.77;;;;;;;6.32;100.00;96530.47;5030298;28;105224;-62
2022/10/10 05:21:25;;;;;;;8.90;8.00;;;;;;;6.39;100.00;96536.47;5029672;28;105649;-62
2022/10/10 05:23:52;;;;;;;8.80;8.00;;;;;;;6.50;100.00;96543.66;5029830;28;101848;-62
2022/10/10 05:26:21;;;;;;;9.63;7.67;;;;;;;6.47;100.00;96538.78;5030278;28;105068;-62
2022/10/10 05:28:48;;;;;;;12.87;9.30;;;;;;;6.52;100.00;96531.03;5029537;28;105122;-62
2022/10/10 05:31:17;;;;;;;13.20;12.00;;;;;;;6.55;100.00;96530.59;5030076;28;101964;-62
2022/10/10 05:33:45;;;;;;;12.80;11.50;;;;;;;6.59;100.00;96531.72;5033308;28;102566;-62
2022/10/10 05:36:14;;;;;;;13.03;11.73;;;;;;;6.66;100.00;96530.63;5028498;28;101937;-62
2022/10/10 05:38:43;;;;;;;12.00;10.60;;;;;;;6.70;100.00;96529.16;5030195;28;102921;-62
2022/10/10 05:41:11;;;;;;;9.87;8.87;;;;;;;6.71;100.00;96530.78;5027981;28;104662;-62
2022/10/10 05:43:39;;;;;;;11.03;9.03;;;;;;;6.69;100.00;96534.66;5029064;28;101861;-62
2022/10/10 05:46:06;;;;;;;13.47;8.50;;;;;;;6.69;100.00;96537.31;5029250;28;104908;-62
2022/10/10 05:48:33;;;;;;;10.17;8.37;;;;;;;6.63;100.00;96538.19;5028745;28;105267;-62
2022/10/10 05:51:02;;;;;;;12.70;8.90;;;;;;;6.66;100.00;96535.13;5029150;28;101912;-62
2022/10/10 05:53:30;;;;;;;11.17;8.40;;;;;;;6.64;100.00;96540.63;5028595;28;105059;-62
2022/10/10 05:56:00;;;;;;;41.20;9.53;;;;;;;6.83;100.00;96544.06;5032746;28;105162;-62
2022/10/10 05:58:27;;;;;;;13.23;8.93;;;;;;;6.91;100.00;96551.66;5029447;28;105335;-62
2022/10/10 06:00:54;;;;;;;11.73;8.60;;;;;;;6.89;100.00;96546.63;5026240;28;105172;-64
2022/10/10 06:03:21;;;;;;;23.23;8.53;;;;;;;6.96;100.00;96554.44;5023859;28;102110;-66
2022/10/10 06:05:52;;;;;;;8.60;6.60;;;;;;;6.89;100.00;96551.09;5029377;28;105450;-64
2022/10/10 06:08:20;;;;;;;8.00;7.20;;;;;;;7.03;100.00;96549.91;5028151;28;105266;-62
2022/10/10 06:10:47;;;;;;;68.60;8.57;;;;;;;6.89;100.00;96551.09;5028612;28;102266;-62
2022/10/10 06:13:17;;;;;;;15.83;6.60;;;;;;;6.92;100.00;96559.38;5028687;28;104894;-62
2022/10/10 06:15:44;;;;;;;6.90;6.30;;;;;;;7.13;100.00;96550.97;5031662;28;105065;-63
2022/10/10 06:18:12;;;;;;;8.67;6.57;;;;;;;7.14;100.00;96557.06;5013844;28;105394;-62
2022/10/10 06:20:40;;;;;;;6.73;6.20;;;;;;;7.07;100.00;96573.00;5022583;28;105055;-62
2022/10/10 06:23:08;;;;;;;8.73;6.30;;;;;;;7.08;100.00;96563.22;5027104;28;101679;-63
2022/10/10 06:25:36;;;;;;;6.63;6.13;;;;;;;7.06;100.00;96565.31;5029498;28;105170;-63
2022/10/10 06:28:04;;;;;;;7.80;7.10;;;;;;;7.25;100.00;96558.94;5028951;28;105788;-63
2022/10/10 06:30:34;;;;;;;7.77;7.07;;;;;;;7.20;100.00;96564.88;5028636;28;103107;-63
2022/10/10 06:33:01;;;;;;;11.00;8.93;;;;;;;7.20;100.00;96566.75;5029221;28;106187;-63
2022/10/10 06:35:27;;;;;;;10.57;9.50;;;;;;;7.32;100.00;96565.72;5030316;28;102895;-63
2022/10/10 06:38:07;;;;;;;11.57;9.43;;;;;;;7.54;100.00;96572.16;5032693;28;102009;-63
2022/10/10 06:40:34;;;;;;;9.03;8.23;;;;;;;7.79;100.00;96577.25;5027804;28;105434;-63
2022/10/10 06:43:02;;;;;;;8.77;7.87;;;;;;;7.78;100.00;96570.31;5028994;28;101835;-63
2022/10/10 06:45:28;;;;;;;9.47;7.17;;;;;;;7.89;100.00;96570.34;5028899;28;104041;-63
2022/10/10 06:48:06;;;;;;;8.33;7.57;;;;;;;8.09;100.00;96576.13;5027862;28;105867;-61
2022/10/10 06:50:35;;;;;;;7.70;7.00;;;;;;;8.19;100.00;96573.69;5021108;28;102290;-62
2022/10/10 06:53:02;;;;;;;7.20;6.60;;;;;;;8.32;100.00;96570.03;5028194;28;106158;-62
2022/10/10 06:55:29;;;;;;;7.83;7.10;;;;;;;8.43;100.00;96570.03;5027933;28;105544;-62
2022/10/10 06:58:02;;;;;;;7.07;6.40;;;;;;;8.49;100.00;96570.94;5028622;28;101903;-63
2022/10/10 07:00:29;;;;;;;6.97;6.37;;;;;;;8.69;100.00;96569.53;5031977;28;105757;-63
2022/10/10 07:02:56;;;;;;;7.47;6.77;;;;;;;8.78;100.00;96567.31;5029049;28;101990;-63
2022/10/10 07:05:25;;;;;;;7.43;6.83;;;;;;;8.87;100.00;96571.19;5030295;28;102379;-62
2022/10/10 07:07:57;;;;;;;7.83;7.13;;;;;;;9.00;100.00;96566.44;5028405;28;105380;-62
2022/10/10 07:10:24;;;;;;;7.23;6.57;;;;;;;9.24;100.00;96570.63;5028893;28;101775;-62
2022/10/10 07:12:51;;;;;;;7.13;6.43;;;;;;;9.43;100.00;96565.94;5028766;28;104838;-62
2022/10/10 07:15:18;;;;;;;6.93;6.33;;;;;;;9.56;100.00;96565.63;5028188;28;105399;-62
2022/10/10 07:17:59;;;;;;;7.80;7.10;;;;;;;9.68;100.00;96569.00;5028692;28;101906;-62
2022/10/10 07:20:30;;;;;;;7.87;7.13;;;;;;;9.72;100.00;96567.50;5029042;28;104997;-61
2022/10/10 07:22:57;;;;;;;7.80;6.83;;;;;;;9.92;100.00;96573.94;5031342;28;106405;-63
2022/10/10 07:25:25;;;;;;;7.50;6.80;;;;;;;10.09;100.00;96566.00;5028410;28;105495;-63
2022/10/10 07:31:16;;;;;;;7.07;6.47;;;;;;;10.52;100.00;96576.75;5028523;28;101985;-62
2022/10/10 07:33:45;;;;;;;7.73;6.77;;;;;;;10.63;100.00;96568.63;5028271;28;104780;-62
2022/10/10 07:36:18;;;;;;;6.63;6.03;;;;;;;10.68;100.00;96570.56;5027999;28;105253;-62
2022/10/10 07:38:50;;;;;;;6.27;5.67;;;;;;;10.55;100.00;96565.59;5028634;28;101823;-62
2022/10/10 07:41:18;;;;;;;6.87;6.20;;;;;;;10.60;100.00;96573.66;5028597;28;104826;-61
2022/10/10 07:43:46;;;;;;;6.40;5.80;;;;;;;10.76;100.00;96568.28;5027490;28;105643;-61
2022/10/10 07:46:17;;;;;;;7.33;6.63;;;;;;;11.08;100.00;96571.88;5031978;28;101976;-61
2022/10/10 07:48:44;;;;;;;7.43;6.73;;;;;;;11.15;100.00;96566.34;5027802;28;105646;-61
2022/10/10 07:51:18;;;;;;;7.70;6.97;;;;;;;11.53;100.00;96572.38;5028069;28;102047;-62
2022/10/10 07:53:45;;;;;;;6.77;6.17;;;;;;;11.41;100.00;96574.38;5028177;28;105710;-61
2022/10/10 07:56:12;;;;;;;7.30;6.07;;;;;;;11.44;100.00;96573.06;5027905;28;105405;-62
2022/10/10 07:58:39;;;;;;;7.47;6.20;;;;;;;11.49;100.00;96573.09;5030812;28;101961;-62
2022/10/10 08:01:08;;;;;;;7.37;5.53;;;;;;;11.55;100.00;96569.47;5031412;28;105239;-61
2022/10/10 08:03:35;;;;;;;6.67;6.07;;;;;;;11.87;100.00;96571.09;5032494;28;103343;-61
2022/10/10 08:06:41;;;;;;;6.27;5.57;;;;;;;12.00;100.00;96576.00;5031610;28;102026;-63
2022/10/10 08:09:08;;;;;;;5.50;5.00;;;;;;;12.31;100.00;96571.72;5034486;28;105480;-62
2022/10/10 08:11:35;;;;;;;5.60;5.10;;;;;;;12.41;100.00;96567.25;5031675;28;101966;-62
2022/10/10 08:14:02;;;;;;;5.00;4.60;;;;;;;12.62;100.00;96573.50;5031259;28;105054;-62
2022/10/10 08:16:46;;;;;;;5.13;4.63;;;;;;;12.99;100.00;96577.75;5030975;28;105075;-62
2022/10/10 08:19:13;;;;;;;6.17;5.23;;;;;;;13.15;100.00;96568.75;5028041;28;102054;-63
2022/10/10 08:21:42;;;;;;;5.90;4.90;;;;;;;13.42;100.00;96569.31;5032697;28;102927;-62
2022/10/10 08:24:09;;;;;;;6.07;5.10;;;;;;;13.61;100.00;96561.63;5030656;28;105704;-62
2022/10/10 08:26:56;;;;;;;7.73;4.87;;;;;;;14.05;100.00;96557.38;5031226;28;102023;-62
2022/10/10 08:29:24;;;;;;;5.10;4.60;;;;;;;14.23;100.00;96564.91;5035551;27;102833;-60
2022/10/10 08:31:51;;;;;;;5.57;4.40;;;;;;;14.29;100.00;96563.84;5031372;28;102156;-62
2022/10/10 08:34:18;;;;;;;4.17;3.73;;;;;;;14.27;100.00;96558.75;5031305;28;103609;-62
2022/10/10 08:36:58;;;;;;;4.30;3.90;;;;;;;13.71;100.00;96556.28;5030211;28;105769;-61
2022/10/10 08:39:25;;;;;;;7.00;3.57;;;;;;;13.73;100.00;96570.22;5030991;28;102373;-61
2022/10/10 08:41:56;;;;;;;6.07;3.40;;;;;;;13.52;100.00;96556.00;5031082;28;104160;-61
2022/10/10 08:44:28;;;;;;;6.33;3.60;;;;;;;13.83;100.00;96562.19;5030067;28;105596;-61
2022/10/10 08:47:26;;;;;;;4.07;3.10;;;;;;;14.24;100.00;96561.16;5030769;28;101866;-61
2022/10/10 08:49:57;;;;;;;6.63;4.03;;;;;;;14.40;100.00;96562.75;5030706;28;105585;-60
2022/10/10 08:52:32;;;;;;;8.10;4.03;;;;;;;14.22;100.00;96557.97;5033234;28;105658;-62
2022/10/10 08:55:03;;;;;;;6.43;4.10;;;;;;;14.62;100.00;96560.56;5032648;28;102788;-62
2022/10/10 08:57:50;;;;;;;5.77;3.50;;;;;;;14.82;100.00;96563.22;5030027;28;105531;-62
2022/10/10 09:00:19;;;;;;;7.97;3.80;;;;;;;14.85;100.00;96568.00;5030832;28;101851;-61
2022/10/10 09:02:51;;;;;;;4.03;3.40;;;;;;;15.14;100.00;96561.72;5030812;28;104059;-61
2022/10/10 09:05:20;;;;;;;4.13;3.30;;;;;;;15.59;100.00;96561.53;5030141;28;105036;-62
2022/10/10 09:08:29;;;;;;;6.67;3.40;;;;;;;15.71;100.00;96556.66;5030742;28;102003;-62
2022/10/10 09:11:00;;;;;;;4.33;3.40;;;;;;;15.84;100.00;96555.19;5022090;28;103696;-62
2022/10/10 09:13:34;;;;;;;4.07;3.27;;;;;;;15.93;100.00;96556.22;5030117;28;105734;-61
2022/10/10 09:16:14;;;;;;;3.47;2.90;;;;;;;16.34;100.00;96552.09;5033642;28;101987;-62
2022/10/10 09:18:58;;;;;;;4.67;3.20;;;;;;;16.74;100.00;96554.44;5029990;28;105062;-62
2022/10/10 09:21:38;;;;;;;4.47;2.60;;;;;;;16.74;100.00;96557.91;5031896;28;101715;-62
2022/10/10 09:24:16;;;;;;;4.80;3.60;;;;;;;16.44;100.00;96562.78;5010557;28;105526;-61
2022/10/10 09:30:13;;;;;;;5.37;2.40;;;;;;;16.84;100.00;96563.19;5030374;28;101910;-62
2022/10/10 09:32:45;;;;;;;2.97;2.60;;;;;;;17.26;100.00;96559.72;5031518;28;104032;-62
2022/10/10 09:35:19;;;;;;;5.77;3.10;;;;;;;17.48;100.00;96555.44;5031274;28;103142;-60
2022/10/10 09:37:51;;;;;;;3.83;2.73;;;;;;;17.69;100.00;96562.16;5030271;28;101840;-61
2022/10/10 09:40:27;;;;;;;4.43;2.70;;;;;;;17.63;100.00;96562.50;5033094;28;105589;-60
2022/10/10 09:42:56;;;;;;;4.47;2.70;;;;;;;17.59;100.00;96561.47;5030156;28;102043;-60
2022/10/10 09:45:28;;;;;;;7.70;2.87;;;;;;;17.86;100.00;96557.06;5030344;28;104991;-61
2022/10/10 09:48:01;;;;;;;4.47;3.00;;;;;;;17.81;100.00;96559.00;5029420;28;105552;-60
2022/10/10 09:50:41;;;;;;;6.43;3.10;;;;;;;17.91;100.00;96558.84;5030267;28;101841;-60
2022/10/10 09:53:13;;;;;;;4.20;2.70;;;;;;;18.04;100.00;96558.13;5029245;28;105289;-60
2022/10/10 09:55:45;;;;;;;4.20;2.90;;;;;;;18.59;100.00;96560.72;5029601;28;105399;-60
2022/10/10 09:58:16;;;;;;;4.90;2.60;;;;;;;18.79;100.00;96559.53;5029681;28;101954;-60
2022/10/10 10:00:43;;;;;;;3.07;2.60;;;;;;;18.90;100.00;96555.56;5029892;28;104813;-60
2022/10/10 10:03:13;;;;;;;2.93;2.50;;;;;;;19.16;100.00;96560.19;5032380;28;105417;-61
2022/10/10 10:05:42;;;;;;;5.97;2.67;;;;;;;19.23;100.00;96568.69;5029632;28;104787;-61
2022/10/10 10:08:26;;;;;;;5.00;2.83;;;;;;;19.36;100.00;96559.00;5029097;28;104104;-61
2022/10/10 10:10:58;;;;;;;5.10;2.60;;;;;;;19.23;100.00;96551.72;5029912;28;102017;-62
2022/10/10 10:13:28;;;;;;;4.93;2.23;;;;;;;19.35;100.00;96557.41;5029582;28;105183;-60
2022/10/10 10:16:07;;;;;;;4.73;2.43;;;;;;;19.61;100.00;96555.78;5028990;28;106378;-61
2022/10/10 10:18:40;;;;;;;4.53;2.30;;;;;;;19.66;100.00;96552.94;5031244;28;102211;-61
2022/10/10 10:21:18;;;;;;;4.97;2.67;;;;;;;20.11;100.00;96551.94;5028643;27;105625;-61
2022/10/10 10:23:52;;;;;;;2.93;2.27;;;;;;;20.16;100.00;96551.84;5028118;28;105984;-61
2022/10/10 10:26:46;;;;;;;3.90;2.30;;;;;;;20.42;100.00;96550.91;5033146;28;101915;-61
2022/10/10 10:29:30;;;;;;;3.83;2.20;;;;;;;20.41;100.00;96553.91;5028823;28;103806;-60
2022/10/10 10:32:05;;;;;;;5.27;2.70;;;;;;;20.77;100.00;96546.50;5045040;27;101860;-61
2022/10/10 10:34:51;;;;;;;4.23;2.50;;;;;;;20.88;100.00;96545.09;5029579;28;104131;-61
2022/10/10 10:37:52;;;;;;;3.20;2.47;;;;;;;20.70;100.00;96538.03;5028677;28;105697;-61
2022/10/10 10:40:29;;;;;;;4.47;2.50;;;;;;;20.77;100.00;96546.50;5029495;28;102338;-61
2022/10/10 10:43:32;;;;;;;4.33;2.03;;;;;;;21.28;100.00;96542.09;5029253;28;105307;-60
2022/10/10 10:46:08;;;;;;;2.83;2.00;;;;;;;21.34;100.00;96537.34;5028764;28;105666;-61
2022/10/10 10:48:42;;;;;;;6.00;2.33;;;;;;;21.52;100.00;96542.47;5032669;28;101899;-62
2022/10/10 10:51:40;;;;;;;2.60;2.07;;;;;;;21.75;100.00;96546.66;5028558;28;105012;-62
2022/10/10 10:54:19;;;;;;;4.73;2.07;;;;;;;21.66;100.00;96536.94;5008898;28;101872;-61
2022/10/10 10:56:53;;;;;;;5.13;2.10;;;;;;;21.57;100.00;96528.78;5009066;28;104425;-61
2022/10/10 10:59:33;;;;;;;5.37;2.00;;;;;;;21.56;100.00;96537.22;5008102;28;105921;-61
2022/10/10 11:02:18;;;;;;;2.70;1.67;;;;;;;21.66;100.00;96542.34;5026382;28;101763;-61
2022/10/10 11:05:01;;;;;;;3.43;1.50;;;;;;;21.27;100.00;96537.81;5029001;28;105629;-61
2022/10/10 11:07:38;;;;;;;2.00;1.63;;;;;;;21.06;100.00;96535.97;5028141;28;105576;-61
2022/10/10 11:10:18;;;;;;;2.97;1.67;;;;;;;21.53;100.00;96535.16;5029037;28;101899;-61
2022/10/10 11:12:57;;;;;;;2.73;1.90;;;;;;;21.52;100.00;96526.25;5031859;28;105143;-61
2022/10/10 11:15:30;;;;;;;3.27;1.77;;;;;;;21.83;100.00;96526.94;5028692;28;102189;-61
2022/10/10 11:18:43;;;;;;;5.63;2.03;;;;;;;21.86;100.00;96523.59;5030354;28;102332;-61
2022/10/10 11:21:30;;;;;;;1.93;1.67;;;;;;;21.87;100.00;96519.78;5027890;28;105932;-60
2022/10/10 11:24:02;;;;;;;2.43;1.63;;;;;;;21.95;100.00;96513.56;5028627;28;101898;-60
2022/10/10 11:27:06;;;;;;;3.33;1.87;;;;;;;22.18;100.00;96517.69;5028766;28;106036;-61
2022/10/10 11:29:47;;;;;;;3.47;1.70;;;;;;;21.49;100.00;96515.25;5028825;28;102578;-61
2022/10/10 11:32:22;;;;;;;3.27;1.70;;;;;;;21.98;100.00;96506.72;5030573;27;101743;-61
2022/10/10 11:35:07;;;;;;;4.53;1.70;;;;;;;21.71;100.00;96513.25;5013552;28;102809;-61
2022/10/10 11:37:40;;;;;;;3.13;1.73;;;;;;;22.07;100.00;96516.41;5020880;28;105547;-61
2022/10/10 11:40:15;;;;;;;1.97;1.60;;;;;;;22.05;100.00;96513.25;5031591;28;105589;-61
2022/10/10 11:42:48;;;;;;;4.60;1.80;;;;;;;22.54;100.00;96509.19;5033087;27;102232;-61
2022/10/10 11:45:21;;;;;;;3.57;1.67;;;;;;;22.67;100.00;96505.50;5031887;28;102061;-61
2022/10/10 11:47:58;;;;;;;3.93;2.17;;;;;;;21.62;100.00;96509.69;5033076;28;104455;-61
2022/10/10 11:50:34;;;;;;;4.97;1.87;;;;;;;21.91;100.00;96509.91;5031216;28;103879;-61